Manitou Springs, Colorado
Current Conditions -  °F | °C
As of 7:56 PM on Wednesday 22 Oct 2014 (Local Time) from KCWN Reporting Station
Broken Clouds Broken Clouds  
Wind Chill: 57°   Ceiling: 11000
Heat Index: 57°   Visibility: 10mi
Dew Point: 37°   Wind: 1mph
Humidity: 48%   Direction: NA
Pressure: 30.2"   Gusts: NA
Location:  38.86°N, 104.92°W
Report Text: KCWN 230156Z AUTO VRB01KT 10SM BKN110 14/03 A3020 RMK AO2 SLP179 T01370027
Loading
Personal Weather Stations






























Interactive Weather Map New forecast layout! Learn more

10-Day Weather Forecast

Advertisements
Track Severe Weather on mobile